sensor_id;sensor_type;location;lat;lon;timestamp;temperature;humidity
76104;HTU21D;64831;44.870;37.336;2022-11-03T17:05:00;11.19;71.74
76104;HTU21D;64831;44.870;37.336;2022-11-03T17:07:26;11.15;71.92
76104;HTU21D;64831;44.870;37.336;2022-11-03T17:09:52;11.16;72.05
76104;HTU21D;64831;44.870;37.336;2022-11-03T17:12:18;11.17;72.16
76104;HTU21D;64831;44.870;37.336;2022-11-03T17:14:44;11.20;72.27
76104;HTU21D;64831;44.870;37.336;2022-11-03T17:17:10;11.19;72.29
76104;HTU21D;64831;44.870;37.336;2022-11-03T17:19:35;11.20;72.33
76104;HTU21D;64831;44.870;37.336;2022-11-03T17:22:01;11.18;72.38
76104;HTU21D;64831;44.870;37.336;2022-11-03T17:24:27;11.19;72.44
76104;HTU21D;64831;44.870;37.336;2022-11-03T17:27:03;11.17;72.50
76104;HTU21D;64831;44.870;37.336;2022-11-03T17:29:39;11.17;72.56
76104;HTU21D;64831;44.870;37.336;2022-11-03T17:32:11;11.19;72.69
76104;HTU21D;64831;44.870;37.336;2022-11-03T17:34:38;11.16;72.77
76104;HTU21D;64831;44.870;37.336;2022-11-03T17:37:04;11.17;72.74
76104;HTU21D;64831;44.870;37.336;2022-11-03T17:39:31;11.15;72.81
76104;HTU21D;64831;44.870;37.336;2022-11-03T17:42:20;11.15;72.77
76104;HTU21D;64831;44.870;37.336;2022-11-03T17:44:48;11.15;72.79
76104;HTU21D;64831;44.870;37.336;2022-11-03T17:47:15;11.14;72.75
76104;HTU21D;64831;44.870;37.336;2022-11-03T17:49:42;11.15;72.86
76104;HTU21D;64831;44.870;37.336;2022-11-03T17:52:14;11.15;72.80
76104;HTU21D;64831;44.870;37.336;2022-11-03T17:54:41;11.14;72.88
76104;HTU21D;64831;44.870;37.336;2022-11-03T17:57:19;11.16;72.92
76104;HTU21D;64831;44.870;37.336;2022-11-03T17:59:48;11.15;72.90
76104;HTU21D;64831;44.870;37.336;2022-11-03T18:02:22;11.15;72.90
76104;HTU21D;64831;44.870;37.336;2022-11-03T18:04:49;11.12;72.90
76104;HTU21D;64831;44.870;37.336;2022-11-03T18:07:19;11.15;72.90
76104;HTU21D;64831;44.870;37.336;2022-11-03T18:09:47;11.14;72.91
76104;HTU21D;64831;44.870;37.336;2022-11-03T18:12:14;11.15;72.90
76104;HTU21D;64831;44.870;37.336;2022-11-03T18:15:01;11.15;72.92
76104;HTU21D;64831;44.870;37.336;2022-11-03T18:17:28;11.18;72.96
76104;HTU21D;64831;44.870;37.336;2022-11-03T18:19:54;11.20;72.94
76104;HTU21D;64831;44.870;37.336;2022-11-03T18:22:20;11.23;72.94
76104;HTU21D;64831;44.870;37.336;2022-11-03T18:24:47;11.26;72.90
76104;HTU21D;64831;44.870;37.336;2022-11-03T18:27:15;11.26;72.80
76104;HTU21D;64831;44.870;37.336;2022-11-03T18:29:41;11.28;72.77
76104;HTU21D;64831;44.870;37.336;2022-11-03T18:32:13;11.28;72.66
76104;HTU21D;64831;44.870;37.336;2022-11-03T18:34:40;11.28;72.58
76104;HTU21D;64831;44.870;37.336;2022-11-03T18:37:10;11.29;72.51
76104;HTU21D;64831;44.870;37.336;2022-11-03T18:39:37;11.29;72.49
76104;HTU21D;64831;44.870;37.336;2022-11-03T18:42:13;11.30;72.51
76104;HTU21D;64831;44.870;37.336;2022-11-03T18:44:39;11.32;72.52
76104;HTU21D;64831;44.870;37.336;2022-11-03T18:47:08;11.34;72.48
76104;HTU21D;64831;44.870;37.336;2022-11-03T18:49:35;11.36;72.45
76104;HTU21D;64831;44.870;37.336;2022-11-03T18:52:21;11.39;72.35
76104;HTU21D;64831;44.870;37.336;2022-11-03T18:54:47;11.39;72.29
76104;HTU21D;64831;44.870;37.336;2022-11-03T18:57:21;11.39;72.27
76104;HTU21D;64831;44.870;37.336;2022-11-03T18:59:48;11.37;72.26
76104;HTU21D;64831;44.870;37.336;2022-11-03T19:04:40;11.37;72.20
76104;HTU21D;64831;44.870;37.336;2022-11-03T19:07:09;11.39;72.20
76104;HTU21D;64831;44.870;37.336;2022-11-03T19:09:37;11.36;72.20
76104;HTU21D;64831;44.870;37.336;2022-11-03T19:12:03;11.34;72.22
76104;HTU21D;64831;44.870;37.336;2022-11-03T19:14:31;11.37;72.25
76104;HTU21D;64831;44.870;37.336;2022-11-03T19:16:59;11.37;72.19
76104;HTU21D;64831;44.870;37.336;2022-11-03T19:19:26;11.38;72.10
76104;HTU21D;64831;44.870;37.336;2022-11-03T19:21:52;11.37;72.02
76104;HTU21D;64831;44.870;37.336;2022-11-03T19:24:18;11.33;71.96
76104;HTU21D;64831;44.870;37.336;2022-11-03T19:27:04;11.27;71.88
76104;HTU21D;64831;44.870;37.336;2022-11-03T19:29:35;11.19;71.98
76104;HTU21D;64831;44.870;37.336;2022-11-03T19:32:03;11.15;72.06
76104;HTU21D;64831;44.870;37.336;2022-11-03T19:34:33;11.13;72.17
76104;HTU21D;64831;44.870;37.336;2022-11-03T19:37:00;11.10;72.22
76104;HTU21D;64831;44.870;37.336;2022-11-03T19:42:00;11.10;72.23
76104;HTU21D;64831;44.870;37.336;2022-11-03T19:44:45;11.11;72.24
76104;HTU21D;64831;44.870;37.336;2022-11-03T19:47:16;11.14;72.19
76104;HTU21D;64831;44.870;37.336;2022-11-03T19:49:43;11.20;72.19
76104;HTU21D;64831;44.870;37.336;2022-11-03T19:52:12;11.27;72.06
76104;HTU21D;64831;44.870;37.336;2022-11-03T19:54:41;11.32;71.90
76104;HTU21D;64831;44.870;37.336;2022-11-03T19:57:12;11.39;71.77
76104;HTU21D;64831;44.870;37.336;2022-11-03T19:59:39;11.43;71.67
76104;HTU21D;64831;44.870;37.336;2022-11-03T20:02:05;11.44;71.55
76104;HTU21D;64831;44.870;37.336;2022-11-03T20:04:31;11.44;71.55
76104;HTU21D;64831;44.870;37.336;2022-11-03T20:06:58;11.45;71.58
76104;HTU21D;64831;44.870;37.336;2022-11-03T20:09:25;11.48;71.50
76104;HTU21D;64831;44.870;37.336;2022-11-03T20:11:53;11.49;71.38
76104;HTU21D;64831;44.870;37.336;2022-11-03T20:14:24;11.53;71.18
76104;HTU21D;64831;44.870;37.336;2022-11-03T20:16:52;11.52;70.98
76104;HTU21D;64831;44.870;37.336;2022-11-03T20:19:18;11.51;70.85
76104;HTU21D;64831;44.870;37.336;2022-11-03T20:21:43;11.48;70.74
76104;HTU21D;64831;44.870;37.336;2022-11-03T20:24:13;11.48;70.68
76104;HTU21D;64831;44.870;37.336;2022-11-03T20:26:40;11.46;70.64
76104;HTU21D;64831;44.870;37.336;2022-11-03T20:29:13;11.43;70.71
76104;HTU21D;64831;44.870;37.336;2022-11-03T20:31:43;11.41;70.76
76104;HTU21D;64831;44.870;37.336;2022-11-03T20:34:13;11.37;70.80
76104;HTU21D;64831;44.870;37.336;2022-11-03T20:36:40;11.34;70.83
76104;HTU21D;64831;44.870;37.336;2022-11-03T20:39:12;11.30;70.87
76104;HTU21D;64831;44.870;37.336;2022-11-03T20:41:42;11.27;70.94
76104;HTU21D;64831;44.870;37.336;2022-11-03T20:44:11;11.24;71.04
76104;HTU21D;64831;44.870;37.336;2022-11-03T20:46:37;11.22;71.11
76104;HTU21D;64831;44.870;37.336;2022-11-03T20:49:04;11.19;71.15
76104;HTU21D;64831;44.870;37.336;2022-11-03T20:51:32;11.20;71.25
76104;HTU21D;64831;44.870;37.336;2022-11-03T20:54:01;11.20;71.31
76104;HTU21D;64831;44.870;37.336;2022-11-03T20:56:27;11.24;71.40
76104;HTU21D;64831;44.870;37.336;2022-11-03T20:58:54;11.25;71.42
76104;HTU21D;64831;44.870;37.336;2022-11-03T21:01:24;11.30;71.31
76104;HTU21D;64831;44.870;37.336;2022-11-03T21:03:51;11.33;71.31
76104;HTU21D;64831;44.870;37.336;2022-11-03T21:06:18;11.38;71.31
76104;HTU21D;64831;44.870;37.336;2022-11-03T21:08:45;11.43;71.28
76104;HTU21D;64831;44.870;37.336;2022-11-03T21:11:23;11.46;71.29
76104;HTU21D;64831;44.870;37.336;2022-11-03T21:13:58;11.47;71.20
76104;HTU21D;64831;44.870;37.336;2022-11-03T21:16:26;11.45;71.06
76104;HTU21D;64831;44.870;37.336;2022-11-03T21:19:15;11.41;71.06
76104;HTU21D;64831;44.870;37.336;2022-11-03T21:22:00;11.36;71.11
76104;HTU21D;64831;44.870;37.336;2022-11-03T21:24:26;11.30;71.18
76104;HTU21D;64831;44.870;37.336;2022-11-03T21:26:52;11.26;71.32
76104;HTU21D;64831;44.870;37.336;2022-11-03T21:29:18;11.22;71.43
76104;HTU21D;64831;44.870;37.336;2022-11-03T21:31:44;11.18;71.49
76104;HTU21D;64831;44.870;37.336;2022-11-03T21:34:10;11.15;71.56
76104;HTU21D;64831;44.870;37.336;2022-11-03T21:36:35;11.12;71.59
76104;HTU21D;64831;44.870;37.336;2022-11-03T21:39:01;11.07;71.66
76104;HTU21D;64831;44.870;37.336;2022-11-03T21:41:28;11.03;71.72
76104;HTU21D;64831;44.870;37.336;2022-11-03T21:44:12;10.97;71.80
76104;HTU21D;64831;44.870;37.336;2022-11-03T21:46:42;10.93;71.89
76104;HTU21D;64831;44.870;37.336;2022-11-03T21:49:08;10.87;71.94
76104;HTU21D;64831;44.870;37.336;2022-11-03T21:51:53;10.83;71.99
76104;HTU21D;64831;44.870;37.336;2022-11-03T21:54:20;10.79;72.06
76104;HTU21D;64831;44.870;37.336;2022-11-03T21:56:46;10.74;72.13
76104;HTU21D;64831;44.870;37.336;2022-11-03T21:59:12;10.71;72.17
76104;HTU21D;64831;44.870;37.336;2022-11-03T22:01:38;10.66;72.26
76104;HTU21D;64831;44.870;37.336;2022-11-03T22:04:04;10.65;72.39
76104;HTU21D;64831;44.870;37.336;2022-11-03T22:06:30;10.63;72.51
76104;HTU21D;64831;44.870;37.336;2022-11-03T22:08:56;10.62;72.63
76104;HTU21D;64831;44.870;37.336;2022-11-03T22:11:22;10.59;72.68
76104;HTU21D;64831;44.870;37.336;2022-11-03T22:13:56;10.59;72.74
76104;HTU21D;64831;44.870;37.336;2022-11-03T22:16:23;10.58;72.77
76104;HTU21D;64831;44.870;37.336;2022-11-03T22:19:12;10.57;72.80
76104;HTU21D;64831;44.870;37.336;2022-11-03T22:21:58;10.53;72.84
76104;HTU21D;64831;44.870;37.336;2022-11-03T22:24:43;10.49;72.91
76104;HTU21D;64831;44.870;37.336;2022-11-03T22:27:29;10.48;72.99
76104;HTU21D;64831;44.870;37.336;2022-11-03T22:29:56;10.45;73.05
76104;HTU21D;64831;44.870;37.336;2022-11-03T22:32:40;10.42;73.12
76104;HTU21D;64831;44.870;37.336;2022-11-03T22:35:08;10.39;73.19
76104;HTU21D;64831;44.870;37.336;2022-11-03T22:40:36;10.37;73.45
76104;HTU21D;64831;44.870;37.336;2022-11-03T22:43:22;10.39;73.51
76104;HTU21D;64831;44.870;37.336;2022-11-03T22:46:07;10.40;73.59
76104;HTU21D;64831;44.870;37.336;2022-11-03T22:48:34;10.42;73.63
76104;HTU21D;64831;44.870;37.336;2022-11-03T22:51:04;10.46;73.67
76104;HTU21D;64831;44.870;37.336;2022-11-03T22:53:32;10.51;73.60
76104;HTU21D;64831;44.870;37.336;2022-11-03T22:56:18;10.54;73.53
76104;HTU21D;64831;44.870;37.336;2022-11-03T22:58:44;10.55;73.48
76104;HTU21D;64831;44.870;37.336;2022-11-03T23:01:15;10.57;73.47
76104;HTU21D;64831;44.870;37.336;2022-11-03T23:03:43;10.56;73.47
76104;HTU21D;64831;44.870;37.336;2022-11-03T23:06:17;10.58;73.44
76104;HTU21D;64831;44.870;37.336;2022-11-03T23:08:44;10.56;73.40
76104;HTU21D;64831;44.870;37.336;2022-11-03T23:11:16;10.57;73.39
76104;HTU21D;64831;44.870;37.336;2022-11-03T23:16:10;10.52;73.22
76104;HTU21D;64831;44.870;37.336;2022-11-03T23:18:37;10.50;73.15
76104;HTU21D;64831;44.870;37.336;2022-11-03T23:21:21;10.44;73.06
76104;HTU21D;64831;44.870;37.336;2022-11-03T23:23:47;10.39;73.03
76104;HTU21D;64831;44.870;37.336;2022-11-03T23:26:31;10.37;72.92
76104;HTU21D;64831;44.870;37.336;2022-11-03T23:28:57;10.31;72.77
76104;HTU21D;64831;44.870;37.336;2022-11-03T23:31:23;10.25;72.74
76104;HTU21D;64831;44.870;37.336;2022-11-03T23:33:49;10.22;72.70
76104;HTU21D;64831;44.870;37.336;2022-11-03T23:36:16;10.16;72.67
76104;HTU21D;64831;44.870;37.336;2022-11-03T23:38:43;10.14;72.81
76104;HTU21D;64831;44.870;37.336;2022-11-03T23:41:12;10.16;73.00
76104;HTU21D;64831;44.870;37.336;2022-11-03T23:43:38;10.18;73.11
76104;HTU21D;64831;44.870;37.336;2022-11-03T23:46:05;10.21;73.19
76104;HTU21D;64831;44.870;37.336;2022-11-03T23:48:51;10.27;73.25
76104;HTU21D;64831;44.870;37.336;2022-11-03T23:51:22;10.34;73.28
76104;HTU21D;64831;44.870;37.336;2022-11-03T23:53:49;10.40;73.27
76104;HTU21D;64831;44.870;37.336;2022-11-03T23:56:17;10.44;73.25
76104;HTU21D;64831;44.870;37.336;2022-11-03T23:59:03;10.48;73.22
